createdAt,value
2022-10-15T00:01:44.797Z,64.56
2022-10-15T00:04:13.367Z,64.84
2022-10-15T00:06:41.544Z,65.20
2022-10-15T00:09:09.818Z,64.97
2022-10-15T00:11:40.036Z,65.51
2022-10-15T00:14:08.425Z,65.54
2022-10-15T00:16:37.101Z,65.08
2022-10-15T00:19:05.513Z,65.35
2022-10-15T00:21:33.960Z,65.38
2022-10-15T00:24:02.135Z,65.11
2022-10-15T00:26:30.518Z,64.90
2022-10-15T00:29:03.611Z,64.53
2022-10-15T00:31:32.707Z,64.21
2022-10-15T00:34:02.782Z,64.16
2022-10-15T00:36:34.222Z,64.01
2022-10-15T00:39:04.965Z,63.89
2022-10-15T00:41:43.691Z,63.64
2022-10-15T00:44:21.263Z,63.44
2022-10-15T00:46:52.931Z,63.73
2022-10-15T00:49:28.299Z,63.76
2022-10-15T00:52:02.328Z,64.03
2022-10-15T00:54:37.475Z,63.63
2022-10-15T00:57:07.267Z,63.43
2022-10-15T00:59:42.421Z,63.18
2022-10-15T01:02:12.042Z,63.13
2022-10-15T01:04:41.227Z,63.19
2022-10-15T01:07:09.436Z,63.25
2022-10-15T01:09:42.606Z,63.01
2022-10-15T01:12:20.280Z,62.56
2022-10-15T01:15:22.893Z,62.23
2022-10-15T01:17:57.305Z,62.42
2022-10-15T01:21:03.337Z,61.59
2022-10-15T01:24:14.314Z,62.31
2022-10-15T01:27:33.482Z,62.63
2022-10-15T01:30:45.383Z,62.32
2022-10-15T01:33:37.223Z,62.82
2022-10-15T01:36:18.119Z,62.92
2022-10-15T01:39:25.679Z,63.01
2022-10-15T01:42:00.471Z,63.01
2022-10-15T01:44:34.340Z,63.09
2022-10-15T01:47:36.181Z,63.19
2022-10-15T01:50:06.541Z,62.78
2022-10-15T01:52:39.479Z,62.79
2022-10-15T01:55:12.680Z,63.02
2022-10-15T01:57:45.064Z,62.80
2022-10-15T02:00:15.243Z,63.28
2022-10-15T02:02:43.780Z,63.22
2022-10-15T02:05:17.988Z,62.80
2022-10-15T02:08:00.621Z,62.80
2022-10-15T02:10:53.945Z,62.60
2022-10-15T02:13:43.955Z,62.77
2022-10-15T02:16:15.142Z,62.37
2022-10-15T02:19:17.859Z,62.01
2022-10-15T02:21:52.695Z,61.76
2022-10-15T02:24:35.448Z,61.45
2022-10-15T02:27:06.373Z,61.07
2022-10-15T02:29:37.345Z,61.08
2022-10-15T02:32:07.649Z,61.42
2022-10-15T02:34:36.597Z,61.36
2022-10-15T02:37:07.288Z,61.69
2022-10-15T02:39:35.604Z,61.40
2022-10-15T02:42:05.007Z,61.78
2022-10-15T02:44:33.709Z,61.77
2022-10-15T02:47:03.097Z,61.77
2022-10-15T02:49:31.361Z,61.90
2022-10-15T02:52:00.161Z,61.65
2022-10-15T02:54:28.297Z,61.78
2022-10-15T02:56:56.506Z,61.78
2022-10-15T02:59:25.892Z,61.96
2022-10-15T03:01:55.210Z,61.58
2022-10-15T03:04:23.894Z,61.62
2022-10-15T03:06:53.092Z,61.80
2022-10-15T03:09:21.621Z,61.71
2022-10-15T03:11:49.850Z,61.53
2022-10-15T03:14:18.788Z,61.48
2022-10-15T03:16:47.016Z,61.39
2022-10-15T03:19:15.190Z,61.47
2022-10-15T03:21:46.084Z,61.44
2022-10-15T03:24:16.071Z,61.43
2022-10-15T03:26:44.728Z,61.12
2022-10-15T03:29:13.106Z,61.31
2022-10-15T03:31:53.056Z,61.23
2022-10-15T03:34:22.021Z,61.41
2022-10-15T03:36:50.427Z,61.72
2022-10-15T03:39:19.420Z,61.84
2022-10-15T03:41:47.849Z,61.95
2022-10-15T03:44:22.422Z,61.95
2022-10-15T03:47:00.632Z,62.24
2022-10-15T03:49:34.879Z,62.63
2022-10-15T03:52:05.069Z,62.63
2022-10-15T03:54:34.573Z,62.83
2022-10-15T03:57:04.203Z,63.00
2022-10-15T03:59:36.104Z,62.55
2022-10-15T04:02:04.705Z,62.74
2022-10-15T04:04:33.757Z,62.56
2022-10-15T04:07:02.007Z,62.59
2022-10-15T04:09:31.605Z,62.66
2022-10-15T04:12:20.373Z,62.61
2022-10-15T04:14:49.093Z,62.72
2022-10-15T04:17:17.859Z,62.91
2022-10-15T04:19:46.838Z,62.85
2022-10-15T04:22:15.819Z,62.96
2022-10-15T04:24:50.442Z,62.90
2022-10-15T04:27:27.428Z,62.84
2022-10-15T04:30:01.126Z,62.72
2022-10-15T04:32:31.843Z,62.74
2022-10-15T04:35:00.868Z,62.86
2022-10-15T04:37:46.572Z,62.89
2022-10-15T04:40:15.427Z,63.00
2022-10-15T04:42:43.963Z,63.18
2022-10-15T04:45:12.366Z,63.39
2022-10-15T04:47:40.884Z,63.46
2022-10-15T04:50:11.244Z,63.28
2022-10-15T04:53:02.485Z,63.38
2022-10-15T04:55:33.347Z,63.36
2022-10-15T04:58:02.034Z,63.57
2022-10-15T05:00:31.403Z,63.92
2022-10-15T05:03:20.050Z,64.08
2022-10-15T05:05:53.280Z,64.42
2022-10-15T05:08:22.463Z,64.61
2022-10-15T05:11:08.369Z,64.64
2022-10-15T05:13:37.051Z,64.88
2022-10-15T05:16:18.121Z,64.71
2022-10-15T05:18:48.498Z,64.36
2022-10-15T05:21:18.059Z,64.17
2022-10-15T05:23:48.075Z,64.25
2022-10-15T05:26:26.720Z,63.93
2022-10-15T05:28:57.320Z,63.94
2022-10-15T05:31:33.213Z,63.73
2022-10-15T05:34:18.044Z,64.06
2022-10-15T05:36:51.376Z,64.21
2022-10-15T05:39:20.026Z,64.11
2022-10-15T05:41:49.630Z,64.08
2022-10-15T05:44:18.007Z,64.18
2022-10-15T05:46:46.493Z,64.45
2022-10-15T05:49:19.275Z,64.48
2022-10-15T05:52:00.154Z,64.08
2022-10-15T05:54:51.357Z,64.26
2022-10-15T05:57:19.654Z,64.63
2022-10-15T05:59:47.773Z,64.96
2022-10-15T06:02:16.430Z,64.78
2022-10-15T06:04:44.714Z,64.62
2022-10-15T06:07:12.800Z,64.58
2022-10-15T06:09:40.936Z,65.12
2022-10-15T06:12:09.354Z,64.79
2022-10-15T06:14:37.600Z,64.85
2022-10-15T06:17:08.207Z,64.71
2022-10-15T06:19:36.338Z,64.54
2022-10-15T06:22:04.658Z,64.81
2022-10-15T06:24:32.889Z,64.86
2022-10-15T06:27:02.222Z,65.00
2022-10-15T06:29:30.599Z,64.77
2022-10-15T06:31:59.284Z,64.62
2022-10-15T06:34:27.442Z,64.69
2022-10-15T06:36:55.663Z,64.90
2022-10-15T06:39:23.744Z,65.04
2022-10-15T06:41:51.860Z,65.03
2022-10-15T06:44:20.461Z,65.05
2022-10-15T06:46:48.736Z,65.14
2022-10-15T06:49:16.910Z,65.12
2022-10-15T06:51:45.159Z,65.41
2022-10-15T06:54:13.380Z,65.28
2022-10-15T06:56:41.511Z,64.73
2022-10-15T06:59:09.641Z,64.64
2022-10-15T07:01:41.400Z,64.87
2022-10-15T07:04:10.543Z,64.59
2022-10-15T07:06:38.816Z,64.42
2022-10-15T07:09:07.118Z,64.29
2022-10-15T07:11:35.292Z,64.15
2022-10-15T07:14:03.562Z,63.92
2022-10-15T07:16:31.735Z,63.91
2022-10-15T07:19:00.261Z,63.73
2022-10-15T07:21:28.389Z,63.59
2022-10-15T07:23:56.568Z,63.48
2022-10-15T07:26:25.178Z,63.31
2022-10-15T07:28:58.898Z,62.91
2022-10-15T07:31:27.773Z,62.51
2022-10-15T07:33:56.016Z,62.39
2022-10-15T07:36:25.524Z,62.34
2022-10-15T07:38:53.906Z,62.25
2022-10-15T07:41:22.176Z,62.08
2022-10-15T07:43:53.444Z,62.03
2022-10-15T07:46:21.697Z,61.82
2022-10-15T07:48:54.634Z,61.58
2022-10-15T07:51:22.758Z,61.38
2022-10-15T07:53:51.341Z,61.43
2022-10-15T07:56:19.513Z,61.32
2022-10-15T07:58:52.031Z,61.01
2022-10-15T08:01:21.842Z,61.07
2022-10-15T08:03:50.382Z,60.95
2022-10-15T08:06:19.297Z,60.91
2022-10-15T08:08:47.938Z,60.74
2022-10-15T08:11:17.173Z,60.68
2022-10-15T08:13:47.295Z,60.48
2022-10-15T08:16:16.777Z,60.39
2022-10-15T08:18:50.074Z,60.28
2022-10-15T08:21:18.453Z,60.33
2022-10-15T08:23:46.625Z,60.20
2022-10-15T08:26:14.981Z,59.97
2022-10-15T08:28:43.459Z,59.94
2022-10-15T08:31:11.763Z,59.83
2022-10-15T08:33:39.936Z,59.40
2022-10-15T08:36:08.518Z,60.10
2022-10-15T08:38:36.792Z,61.87
2022-10-15T08:41:16.179Z,62.68
2022-10-15T08:43:47.605Z,62.38
2022-10-15T08:46:44.219Z,61.89
2022-10-15T08:49:41.926Z,61.32
2022-10-15T08:52:29.417Z,60.67
2022-10-15T08:55:01.704Z,60.29
2022-10-15T08:57:52.040Z,59.54
2022-10-15T09:00:24.860Z,59.60
2022-10-15T09:03:02.615Z,61.08
2022-10-15T09:05:48.478Z,61.96
2022-10-15T09:08:31.431Z,62.73
2022-10-15T09:11:05.651Z,62.25
2022-10-15T09:13:38.128Z,61.21
2022-10-15T09:16:15.958Z,60.27
2022-10-15T09:18:51.521Z,59.35
2022-10-15T09:21:25.960Z,59.51
2022-10-15T09:24:05.261Z,60.46
2022-10-15T09:26:45.926Z,61.36
2022-10-15T09:29:16.976Z,62.42
2022-10-15T09:32:20.196Z,63.08
2022-10-15T09:35:06.190Z,61.79
2022-10-15T09:37:46.425Z,61.00
2022-10-15T09:40:33.359Z,60.37
2022-10-15T09:43:02.994Z,59.56
2022-10-15T09:45:31.517Z,59.26
2022-10-15T09:48:00.995Z,60.02
2022-10-15T09:50:38.945Z,60.53
2022-10-15T09:53:19.251Z,61.17
2022-10-15T09:55:54.039Z,62.79
2022-10-15T09:59:03.665Z,62.57
2022-10-15T10:01:34.161Z,61.71
2022-10-15T10:04:20.359Z,60.19
2022-10-15T10:06:55.564Z,59.42
2022-10-15T10:09:56.531Z,59.34
2022-10-15T10:12:32.196Z,61.09
2022-10-15T10:15:26.796Z,61.61
2022-10-15T10:17:56.847Z,62.91
2022-10-15T10:20:34.521Z,62.40
2022-10-15T10:23:22.165Z,61.49
2022-10-15T10:25:50.559Z,60.36
2022-10-15T10:28:53.744Z,59.52
2022-10-15T10:31:32.262Z,59.03
2022-10-15T10:34:02.718Z,59.57
2022-10-15T10:36:34.408Z,60.50
2022-10-15T10:39:14.159Z,60.95
2022-10-15T10:41:57.378Z,61.09
2022-10-15T10:44:30.246Z,61.63
2022-10-15T10:47:21.124Z,63.09
2022-10-15T10:49:54.132Z,63.37
2022-10-15T10:52:33.908Z,63.21
2022-10-15T10:55:17.165Z,62.80
2022-10-15T10:57:50.162Z,60.82
2022-10-15T11:00:37.196Z,61.54
2022-10-15T11:03:07.137Z,61.37
2022-10-15T11:05:40.563Z,61.76
2022-10-15T11:08:25.163Z,62.17
2022-10-15T11:11:21.981Z,61.41
2022-10-15T11:14:02.020Z,61.72
2022-10-15T11:16:49.667Z,61.28
2022-10-15T11:22:44.508Z,61.12
2022-10-15T11:25:52.401Z,61.31
2022-10-15T11:28:37.894Z,61.42
2022-10-15T11:31:19.428Z,61.45
2022-10-15T11:34:17.919Z,61.09
2022-10-15T11:37:06.245Z,60.37
2022-10-15T11:40:00.789Z,60.14
2022-10-15T11:42:43.052Z,60.14
2022-10-15T11:45:44.275Z,59.66
2022-10-15T11:48:40.546Z,58.46
2022-10-15T11:51:31.648Z,57.78
2022-10-15T11:54:13.349Z,59.24
2022-10-15T11:56:47.545Z,60.20
2022-10-15T11:59:18.333Z,61.01
2022-10-15T12:02:02.849Z,63.17
2022-10-15T12:04:43.883Z,63.45
2022-10-15T12:07:18.536Z,63.55
2022-10-15T12:09:52.456Z,62.25
2022-10-15T12:12:39.732Z,61.42
2022-10-15T12:15:24.493Z,61.06
2022-10-15T12:18:08.965Z,61.11
2022-10-15T12:20:37.637Z,60.72
2022-10-15T12:23:05.978Z,60.58
2022-10-15T12:25:34.012Z,60.49
2022-10-15T12:28:08.371Z,60.32
2022-10-15T12:30:37.879Z,59.97
2022-10-15T12:33:45.484Z,59.56
2022-10-15T12:36:19.367Z,58.49
2022-10-15T12:39:40.277Z,59.38
2022-10-15T12:42:38.336Z,56.22
2022-10-15T12:45:19.287Z,55.09
2022-10-15T12:47:54.279Z,50.34
2022-10-15T12:50:31.200Z,46.66
2022-10-15T12:53:02.033Z,47.52
2022-10-15T12:55:32.939Z,46.51
2022-10-15T12:58:33.959Z,47.34
2022-10-15T13:01:14.341Z,48.24
2022-10-15T13:03:56.218Z,49.22
2022-10-15T13:06:27.104Z,50.56
2022-10-15T13:09:16.933Z,51.43
2022-10-15T13:11:53.337Z,51.59
2022-10-15T13:14:49.726Z,53.08
2022-10-15T13:17:22.407Z,53.81
2022-10-15T13:20:31.457Z,55.10
2022-10-15T13:23:30.360Z,56.21
2022-10-15T13:26:20.095Z,57.47
2022-10-15T13:28:50.504Z,58.15
2022-10-15T13:31:30.965Z,59.26
2022-10-15T13:34:14.063Z,59.98
2022-10-15T13:36:44.970Z,60.89
2022-10-15T13:39:50.725Z,62.35
2022-10-15T13:42:22.399Z,63.10
2022-10-15T13:45:20.268Z,62.59
2022-10-15T13:47:53.552Z,62.72
2022-10-15T13:50:26.217Z,60.80
2022-10-15T13:52:59.934Z,59.72
2022-10-15T13:55:31.160Z,59.72
2022-10-15T13:58:14.299Z,60.44
2022-10-15T14:00:42.945Z,62.22
2022-10-15T14:03:24.967Z,63.79
2022-10-15T14:05:54.973Z,62.42
2022-10-15T14:08:25.127Z,62.07
2022-10-15T14:10:58.653Z,61.59
2022-10-15T14:13:27.854Z,61.88
2022-10-15T14:16:35.068Z,61.79
2022-10-15T14:19:06.777Z,61.42
2022-10-15T14:21:37.338Z,61.82
2022-10-15T14:24:19.508Z,61.45
2022-10-15T14:26:49.072Z,61.58
2022-10-15T14:29:29.278Z,61.61
2022-10-15T14:31:57.792Z,62.03
2022-10-15T14:34:35.377Z,61.52
2022-10-15T14:37:24.083Z,62.07
2022-10-15T14:40:08.680Z,61.84
2022-10-15T14:42:56.780Z,62.18
2022-10-15T14:45:26.334Z,62.25
2022-10-15T14:47:59.582Z,62.24
2022-10-15T14:50:33.492Z,62.67
2022-10-15T14:53:07.598Z,62.14
2022-10-15T14:55:41.694Z,62.52
2022-10-15T14:58:16.636Z,62.83
2022-10-15T15:00:49.358Z,63.15
2022-10-15T15:03:20.508Z,63.23
2022-10-15T15:05:54.243Z,63.77
2022-10-15T15:08:25.146Z,62.47
2022-10-15T15:10:57.501Z,62.63
2022-10-15T15:13:27.621Z,63.12
2022-10-15T15:15:55.992Z,62.70
2022-10-15T15:18:24.529Z,63.37
2022-10-15T15:20:53.009Z,63.13
2022-10-15T15:23:25.395Z,63.18
2022-10-15T15:25:55.041Z,63.32
2022-10-15T15:28:26.686Z,63.64
2022-10-15T15:31:07.759Z,63.74
2022-10-15T15:33:35.984Z,63.75
2022-10-15T15:36:10.070Z,63.82
2022-10-15T15:38:38.290Z,63.86
2022-10-15T15:41:22.369Z,64.03
2022-10-15T15:43:51.233Z,63.91
2022-10-15T15:46:19.492Z,63.44
2022-10-15T15:48:47.768Z,63.90
2022-10-15T15:51:26.465Z,63.87
2022-10-15T15:53:55.968Z,63.91
2022-10-15T15:56:25.293Z,63.46
2022-10-15T15:58:53.573Z,63.68
2022-10-15T16:01:21.854Z,64.00
2022-10-15T16:03:50.253Z,64.30
2022-10-15T16:06:18.365Z,64.45
2022-10-15T16:08:46.466Z,64.29
2022-10-15T16:11:14.845Z,64.38
2022-10-15T16:13:43.285Z,64.61
2022-10-15T16:16:13.083Z,64.90
2022-10-15T16:18:41.467Z,65.10
2022-10-15T16:21:09.601Z,65.35
2022-10-15T16:23:37.717Z,65.37
2022-10-15T16:26:06.345Z,65.17
2022-10-15T16:28:34.566Z,64.79
2022-10-15T16:31:25.197Z,64.76
2022-10-15T16:33:55.910Z,64.87
2022-10-15T16:36:24.936Z,64.60
2022-10-15T16:38:53.995Z,63.65
2022-10-15T16:41:22.134Z,63.95
2022-10-15T16:43:50.411Z,64.21
2022-10-15T16:46:20.035Z,64.45
2022-10-15T16:48:55.664Z,64.25
2022-10-15T16:51:24.302Z,63.54
2022-10-15T16:53:53.060Z,63.48
2022-10-15T16:56:24.384Z,63.44
2022-10-15T16:58:53.301Z,63.25
2022-10-15T17:01:31.231Z,63.29
2022-10-15T17:03:59.999Z,63.39
2022-10-15T17:06:30.171Z,63.49
2022-10-15T17:09:01.147Z,63.45
2022-10-15T17:11:32.964Z,63.56
2022-10-15T17:14:05.008Z,63.45
2022-10-15T17:16:36.321Z,63.41
2022-10-15T17:19:07.397Z,63.57
2022-10-15T17:21:36.354Z,63.59
2022-10-15T17:24:08.091Z,63.60
2022-10-15T17:26:41.042Z,63.69
2022-10-15T17:29:20.784Z,63.70
2022-10-15T17:31:50.377Z,63.79
2022-10-15T17:34:18.578Z,63.47
2022-10-15T17:36:49.027Z,63.53
2022-10-15T17:39:19.721Z,63.87
2022-10-15T17:41:49.218Z,63.93
2022-10-15T17:44:17.762Z,63.94
2022-10-15T17:46:46.204Z,63.96
2022-10-15T17:49:18.530Z,63.77
2022-10-15T17:51:47.825Z,63.58
2022-10-15T17:54:16.381Z,63.43
2022-10-15T17:56:45.243Z,63.21
2022-10-15T17:59:13.502Z,63.43
2022-10-15T18:01:59.865Z,62.99
2022-10-15T18:04:29.994Z,63.08
2022-10-15T18:06:58.518Z,63.62
2022-10-15T18:09:28.136Z,63.95
2022-10-15T18:11:57.911Z,63.98
2022-10-15T18:14:30.165Z,64.32
2022-10-15T18:16:59.035Z,64.25
2022-10-15T18:19:28.233Z,63.79
2022-10-15T18:21:57.206Z,63.59
2022-10-15T18:24:25.916Z,63.96
2022-10-15T18:26:54.426Z,64.39
2022-10-15T18:29:24.045Z,64.01
2022-10-15T18:31:57.384Z,64.17
2022-10-15T18:34:28.199Z,63.96
2022-10-15T18:36:56.569Z,64.16
2022-10-15T18:39:25.802Z,64.38
2022-10-15T18:41:54.252Z,64.44
2022-10-15T18:44:23.770Z,64.69
2022-10-15T18:46:52.098Z,64.28
2022-10-15T18:49:21.518Z,64.06
2022-10-15T18:51:54.383Z,64.29
2022-10-15T18:54:22.872Z,64.52
2022-10-15T18:56:52.844Z,64.66
2022-10-15T18:59:22.071Z,64.80
2022-10-15T19:01:50.950Z,64.59
2022-10-15T19:04:20.956Z,64.68
2022-10-15T19:06:51.745Z,64.36
2022-10-15T19:09:26.191Z,64.50
2022-10-15T19:11:57.593Z,64.61
2022-10-15T19:14:30.642Z,64.85
2022-10-15T19:16:58.868Z,64.88
2022-10-15T19:19:28.869Z,64.93
2022-10-15T19:21:58.416Z,64.72
2022-10-15T19:24:26.695Z,64.62
2022-10-15T19:26:55.222Z,64.59
2022-10-15T19:29:23.479Z,64.68
2022-10-15T19:31:54.382Z,64.78
2022-10-15T19:34:23.821Z,65.19
2022-10-15T19:36:52.127Z,65.49
2022-10-15T19:39:22.154Z,65.89
2022-10-15T19:41:52.055Z,65.85
2022-10-15T19:44:25.455Z,65.73
2022-10-15T19:46:55.958Z,66.18
2022-10-15T19:49:24.927Z,66.13
2022-10-15T19:51:53.197Z,65.53
2022-10-15T19:54:22.005Z,65.43
2022-10-15T19:56:50.184Z,65.42
2022-10-15T19:59:18.453Z,65.91
2022-10-15T20:01:46.903Z,66.24
2022-10-15T20:04:15.203Z,66.18
2022-10-15T20:06:43.918Z,65.86
2022-10-15T20:09:12.136Z,65.93
2022-10-15T20:11:40.310Z,66.11
2022-10-15T20:14:08.632Z,66.49
2022-10-15T20:16:37.299Z,66.72
2022-10-15T20:19:06.185Z,66.43
2022-10-15T20:21:34.274Z,66.21
2022-10-15T20:24:04.563Z,66.25
2022-10-15T20:26:33.834Z,66.54
2022-10-15T20:29:02.250Z,66.46
2022-10-15T20:31:33.262Z,67.00
2022-10-15T20:34:02.663Z,66.98
2022-10-15T20:36:31.258Z,66.63
2022-10-15T20:39:01.223Z,66.71
2022-10-15T20:41:29.780Z,67.02
2022-10-15T20:43:58.402Z,67.66
2022-10-15T20:46:41.406Z,67.90
2022-10-15T20:49:17.553Z,67.72
2022-10-15T20:51:46.145Z,67.91
2022-10-15T20:54:15.544Z,68.08
2022-10-15T20:56:43.981Z,68.43
2022-10-15T20:59:13.078Z,68.69
2022-10-15T21:01:41.372Z,68.89
2022-10-15T21:04:09.542Z,69.20
2022-10-15T21:06:38.373Z,69.50
2022-10-15T21:09:07.466Z,69.57
2022-10-15T21:11:43.054Z,69.61
2022-10-15T21:14:12.531Z,69.24
2022-10-15T21:16:41.605Z,69.42
2022-10-15T21:19:09.676Z,69.45
2022-10-15T21:21:37.916Z,69.18
2022-10-15T21:24:06.397Z,68.97
2022-10-15T21:26:34.667Z,69.10
2022-10-15T21:29:02.884Z,68.85
2022-10-15T21:31:31.068Z,68.68
2022-10-15T21:33:59.423Z,68.60
2022-10-15T21:36:28.842Z,68.98
2022-10-15T21:39:07.004Z,68.48
2022-10-15T21:41:37.465Z,68.11
2022-10-15T21:44:07.377Z,67.99
2022-10-15T21:46:36.290Z,68.04
2022-10-15T21:49:06.751Z,67.98
2022-10-15T21:51:37.045Z,67.98
2022-10-15T21:54:06.839Z,67.93
2022-10-15T21:56:35.971Z,68.20
2022-10-15T21:59:04.774Z,68.20
2022-10-15T22:01:35.383Z,68.25
2022-10-15T22:04:07.077Z,68.08
2022-10-15T22:06:39.990Z,68.34
2022-10-15T22:09:10.024Z,68.39
2022-10-15T22:11:40.368Z,68.19
2022-10-15T22:14:12.052Z,68.44
2022-10-15T22:16:41.903Z,68.50
2022-10-15T22:19:13.609Z,68.47
2022-10-15T22:21:42.458Z,68.12
2022-10-15T22:24:13.715Z,68.30
2022-10-15T22:26:44.751Z,68.26
2022-10-15T22:29:23.807Z,67.99
2022-10-15T22:31:52.558Z,67.84
2022-10-15T22:34:22.460Z,68.16
2022-10-15T22:36:51.164Z,68.51
2022-10-15T22:39:19.563Z,68.47
2022-10-15T22:41:48.890Z,68.64
2022-10-15T22:44:20.065Z,68.89
2022-10-15T22:46:49.881Z,68.72
2022-10-15T22:49:20.235Z,68.96
2022-10-15T22:51:49.704Z,69.14
2022-10-15T22:54:20.463Z,69.11
2022-10-15T22:56:49.791Z,69.35
2022-10-15T22:59:18.817Z,69.89
2022-10-15T23:01:47.336Z,70.11
2022-10-15T23:04:16.563Z,70.03
2022-10-15T23:06:44.827Z,69.93
2022-10-15T23:09:18.012Z,69.91
2022-10-15T23:11:46.994Z,70.36
2022-10-15T23:14:16.576Z,70.05
2022-10-15T23:16:47.326Z,69.82
2022-10-15T23:19:21.061Z,70.06
2022-10-15T23:21:57.420Z,69.91
2022-10-15T23:24:27.557Z,69.86
2022-10-15T23:26:56.124Z,69.84
2022-10-15T23:29:26.116Z,69.93
2022-10-15T23:31:54.769Z,69.88
2022-10-15T23:34:25.739Z,69.73
2022-10-15T23:36:54.222Z,69.91
2022-10-15T23:39:25.262Z,69.87
2022-10-15T23:41:54.506Z,69.81
2022-10-15T23:44:25.937Z,69.82
2022-10-15T23:46:55.086Z,69.78
2022-10-15T23:49:23.588Z,69.80
2022-10-15T23:51:51.748Z,69.93
2022-10-15T23:54:20.061Z,69.94
2022-10-15T23:56:48.538Z,70.17
2022-10-15T23:59:17.612Z,69.98
